sensor_id;sensor_type;location;lat;lon;timestamp;pressure;altitude;pressure_sealevel;temperature;humidity
83631;BME280;73593;52.134;5.426;2024-02-21T00:02:22;102226.88;;;8.37;87.75
83631;BME280;73593;52.134;5.426;2024-02-21T00:04:48;102227.81;;;8.36;87.57
83631;BME280;73593;52.134;5.426;2024-02-21T00:07:16;102214.66;;;8.34;87.80
83631;BME280;73593;52.134;5.426;2024-02-21T00:09:45;102211.25;;;8.32;87.74
83631;BME280;73593;52.134;5.426;2024-02-21T00:12:12;102195.50;;;8.31;87.66
83631;BME280;73593;52.134;5.426;2024-02-21T00:14:40;102192.94;;;8.29;87.77
83631;BME280;73593;52.134;5.426;2024-02-21T00:17:07;102199.19;;;8.27;87.81
83631;BME280;73593;52.134;5.426;2024-02-21T00:19:41;102183.47;;;8.25;87.77
83631;BME280;73593;52.134;5.426;2024-02-21T00:22:08;102191.38;;;8.25;87.91
83631;BME280;73593;52.134;5.426;2024-02-21T00:24:35;102187.88;;;8.25;87.84
83631;BME280;73593;52.134;5.426;2024-02-21T00:27:04;102192.22;;;8.26;87.89
83631;BME280;73593;52.134;5.426;2024-02-21T00:29:30;102196.66;;;8.25;87.73
83631;BME280;73593;52.134;5.426;2024-02-21T00:31:57;102202.78;;;8.26;87.66
83631;BME280;73593;52.134;5.426;2024-02-21T00:34:26;102194.88;;;8.26;87.98
83631;BME280;73593;52.134;5.426;2024-02-21T00:36:53;102190.44;;;8.26;88.13
83631;BME280;73593;52.134;5.426;2024-02-21T00:39:19;102195.63;;;8.28;88.00
83631;BME280;73593;52.134;5.426;2024-02-21T00:41:46;102183.28;;;8.28;87.78
83631;BME280;73593;52.134;5.426;2024-02-21T00:44:15;102185.06;;;8.28;87.70
83631;BME280;73593;52.134;5.426;2024-02-21T00:46:42;102184.22;;;8.27;87.96
83631;BME280;73593;52.134;5.426;2024-02-21T00:49:09;102179.88;;;8.26;87.72
83631;BME280;73593;52.134;5.426;2024-02-21T00:51:36;102191.38;;;8.25;87.86
83631;BME280;73593;52.134;5.426;2024-02-21T00:54:04;102190.53;;;8.25;87.59
83631;BME280;73593;52.134;5.426;2024-02-21T00:56:31;102187.81;;;8.26;88.25
83631;BME280;73593;52.134;5.426;2024-02-21T00:59:00;102192.22;;;8.26;88.04
83631;BME280;73593;52.134;5.426;2024-02-21T01:01:27;102200.13;;;8.26;88.14
83631;BME280;73593;52.134;5.426;2024-02-21T01:03:54;102201.84;;;8.27;88.00
83631;BME280;73593;52.134;5.426;2024-02-21T01:06:25;102210.59;;;8.27;87.76
83631;BME280;73593;52.134;5.426;2024-02-21T01:08:52;102216.75;;;8.28;87.78
83631;BME280;73593;52.134;5.426;2024-02-21T01:11:19;102218.53;;;8.27;87.94
83631;BME280;73593;52.134;5.426;2024-02-21T01:13:51;102208.81;;;8.28;88.09
83631;BME280;73593;52.134;5.426;2024-02-21T01:16:20;102206.19;;;8.28;87.85
83631;BME280;73593;52.134;5.426;2024-02-21T01:18:49;102193.00;;;8.28;87.85
83631;BME280;73593;52.134;5.426;2024-02-21T01:21:16;102193.84;;;8.28;88.00
83631;BME280;73593;52.134;5.426;2024-02-21T01:23:42;102200.91;;;8.28;88.10
83631;BME280;73593;52.134;5.426;2024-02-21T01:26:11;102200.00;;;8.29;87.92
83631;BME280;73593;52.134;5.426;2024-02-21T01:28:44;102186.88;;;8.27;87.95
83631;BME280;73593;52.134;5.426;2024-02-21T01:31:11;102185.06;;;8.28;88.08
83631;BME280;73593;52.134;5.426;2024-02-21T01:33:41;102191.28;;;8.27;88.10
83631;BME280;73593;52.134;5.426;2024-02-21T01:36:11;102180.75;;;8.27;88.29
83631;BME280;73593;52.134;5.426;2024-02-21T01:38:40;102178.00;;;8.28;88.03
83631;BME280;73593;52.134;5.426;2024-02-21T01:41:07;102170.19;;;8.27;88.13
83631;BME280;73593;52.134;5.426;2024-02-21T01:43:36;102175.47;;;8.27;87.95
83631;BME280;73593;52.134;5.426;2024-02-21T01:46:03;102161.41;;;8.26;88.23
83631;BME280;73593;52.134;5.426;2024-02-21T01:48:29;102153.50;;;8.26;88.38
83631;BME280;73593;52.134;5.426;2024-02-21T01:50:56;102145.59;;;8.26;88.33
83631;BME280;73593;52.134;5.426;2024-02-21T01:53:34;102134.19;;;8.26;87.87
83631;BME280;73593;52.134;5.426;2024-02-21T01:56:03;102140.41;;;8.25;87.99
83631;BME280;73593;52.134;5.426;2024-02-21T01:58:35;102143.88;;;8.25;88.16
83631;BME280;73593;52.134;5.426;2024-02-21T02:01:06;102143.88;;;8.25;88.15
83631;BME280;73593;52.134;5.426;2024-02-21T02:03:33;102145.50;;;8.28;88.03
83631;BME280;73593;52.134;5.426;2024-02-21T02:05:59;102135.88;;;8.27;87.74
83631;BME280;73593;52.134;5.426;2024-02-21T02:08:26;102141.16;;;8.27;87.75
83631;BME280;73593;52.134;5.426;2024-02-21T02:10:58;102131.53;;;8.26;88.12
83631;BME280;73593;52.134;5.426;2024-02-21T02:13:25;102130.69;;;8.25;88.27
83631;BME280;73593;52.134;5.426;2024-02-21T02:15:52;102131.53;;;8.26;88.09
83631;BME280;73593;52.134;5.426;2024-02-21T02:18:20;102120.16;;;8.25;87.57
83631;BME280;73593;52.134;5.426;2024-02-21T02:20:47;102116.66;;;8.25;88.14
83631;BME280;73593;52.134;5.426;2024-02-21T02:23:28;102112.31;;;8.24;87.94
83631;BME280;73593;52.134;5.426;2024-02-21T02:25:55;102110.63;;;8.23;88.07
83631;BME280;73593;52.134;5.426;2024-02-21T02:28:24;102103.56;;;8.23;87.88
83631;BME280;73593;52.134;5.426;2024-02-21T02:30:53;102113.16;;;8.24;88.04
83631;BME280;73593;52.134;5.426;2024-02-21T02:33:20;102108.81;;;8.23;88.00
83631;BME280;73593;52.134;5.426;2024-02-21T02:35:47;102105.25;;;8.24;87.92
83631;BME280;73593;52.134;5.426;2024-02-21T02:38:16;102103.56;;;8.23;87.96
83631;BME280;73593;52.134;5.426;2024-02-21T02:40:43;102102.69;;;8.23;87.82
83631;BME280;73593;52.134;5.426;2024-02-21T02:43:10;102093.91;;;8.22;87.92
83631;BME280;73593;52.134;5.426;2024-02-21T02:45:39;102093.91;;;8.22;87.88
83631;BME280;73593;52.134;5.426;2024-02-21T02:48:10;102096.53;;;8.22;88.04
83631;BME280;73593;52.134;5.426;2024-02-21T02:50:39;102104.41;;;8.24;87.91
83631;BME280;73593;52.134;5.426;2024-02-21T02:53:06;102097.41;;;8.23;87.97
83631;BME280;73593;52.134;5.426;2024-02-21T02:55:33;102096.53;;;8.22;87.87
83631;BME280;73593;52.134;5.426;2024-02-21T02:58:01;102086.88;;;8.23;88.02
83631;BME280;73593;52.134;5.426;2024-02-21T03:00:31;102085.13;;;8.22;88.10
83631;BME280;73593;52.134;5.426;2024-02-21T03:03:02;102081.66;;;8.21;87.88
83631;BME280;73593;52.134;5.426;2024-02-21T03:05:32;102072.88;;;8.21;87.95
83631;BME280;73593;52.134;5.426;2024-02-21T03:07:59;102070.25;;;8.21;88.30
83631;BME280;73593;52.134;5.426;2024-02-21T03:10:26;102065.06;;;8.19;87.92
83631;BME280;73593;52.134;5.426;2024-02-21T03:12:52;102065.06;;;8.19;88.16
83631;BME280;73593;52.134;5.426;2024-02-21T03:15:19;102065.16;;;8.18;88.13
83631;BME280;73593;52.134;5.426;2024-02-21T03:17:46;102052.81;;;8.18;88.06
83631;BME280;73593;52.134;5.426;2024-02-21T03:20:15;102061.66;;;8.17;88.07
83631;BME280;73593;52.134;5.426;2024-02-21T03:22:42;102059.88;;;8.18;88.17
83631;BME280;73593;52.134;5.426;2024-02-21T03:25:09;102047.63;;;8.17;88.09
83631;BME280;73593;52.134;5.426;2024-02-21T03:27:39;102045.81;;;8.17;88.12
83631;BME280;73593;52.134;5.426;2024-02-21T03:30:06;102055.59;;;8.15;88.21
83631;BME280;73593;52.134;5.426;2024-02-21T03:32:36;102045.88;;;8.16;88.31
83631;BME280;73593;52.134;5.426;2024-02-21T03:35:03;102035.41;;;8.14;88.19
83631;BME280;73593;52.134;5.426;2024-02-21T03:37:32;102027.50;;;8.14;88.40
83631;BME280;73593;52.134;5.426;2024-02-21T03:39:58;102023.16;;;8.13;88.56
83631;BME280;73593;52.134;5.426;2024-02-21T03:42:28;102013.66;;;8.11;88.26
83631;BME280;73593;52.134;5.426;2024-02-21T03:45:00;102018.03;;;8.10;88.20
83631;BME280;73593;52.134;5.426;2024-02-21T03:47:30;102012.75;;;8.10;88.23
83631;BME280;73593;52.134;5.426;2024-02-21T03:50:01;102016.28;;;8.11;88.36
83631;BME280;73593;52.134;5.426;2024-02-21T03:52:28;102017.19;;;8.09;88.08
83631;BME280;73593;52.134;5.426;2024-02-21T03:54:55;102020.75;;;8.08;88.41
83631;BME280;73593;52.134;5.426;2024-02-21T03:57:26;102010.22;;;8.08;88.28
83631;BME280;73593;52.134;5.426;2024-02-21T03:59:53;102017.28;;;8.08;88.46
83631;BME280;73593;52.134;5.426;2024-02-21T04:02:20;102019.91;;;8.08;88.42
83631;BME280;73593;52.134;5.426;2024-02-21T04:04:47;102017.34;;;8.06;88.67
83631;BME280;73593;52.134;5.426;2024-02-21T04:07:15;102013.88;;;8.06;88.54
83631;BME280;73593;52.134;5.426;2024-02-21T04:09:44;102009.53;;;8.05;88.53
83631;BME280;73593;52.134;5.426;2024-02-21T04:12:10;102013.97;;;8.04;88.34
83631;BME280;73593;52.134;5.426;2024-02-21T04:14:37;102013.97;;;8.04;88.40
83631;BME280;73593;52.134;5.426;2024-02-21T04:17:04;102014.81;;;8.05;88.61
83631;BME280;73593;52.134;5.426;2024-02-21T04:19:33;101998.13;;;8.04;88.29
83631;BME280;73593;52.134;5.426;2024-02-21T04:22:01;101995.56;;;8.03;88.52
83631;BME280;73593;52.134;5.426;2024-02-21T04:24:27;101993.84;;;8.02;88.66
83631;BME280;73593;52.134;5.426;2024-02-21T04:26:56;101985.09;;;8.01;88.39
83631;BME280;73593;52.134;5.426;2024-02-21T04:29:25;101990.44;;;8.00;88.41
83631;BME280;73593;52.134;5.426;2024-02-21T04:31:54;101988.66;;;8.00;88.52
83631;BME280;73593;52.134;5.426;2024-02-21T04:34:23;101986.97;;;7.99;88.59
83631;BME280;73593;52.134;5.426;2024-02-21T04:36:54;101987.81;;;8.00;88.40
83631;BME280;73593;52.134;5.426;2024-02-21T04:39:21;101981.69;;;7.99;88.37
83631;BME280;73593;52.134;5.426;2024-02-21T04:41:50;101981.69;;;7.99;88.47
83631;BME280;73593;52.134;5.426;2024-02-21T04:44:17;101977.34;;;7.98;88.46
83631;BME280;73593;52.134;5.426;2024-02-21T04:46:48;101970.34;;;7.97;88.39
83631;BME280;73593;52.134;5.426;2024-02-21T04:49:17;101964.22;;;7.97;88.64
83631;BME280;73593;52.134;5.426;2024-02-21T04:51:45;101963.38;;;7.96;88.29
83631;BME280;73593;52.134;5.426;2024-02-21T04:54:14;101953.78;;;7.95;88.64
83631;BME280;73593;52.134;5.426;2024-02-21T04:56:46;101961.59;;;7.97;88.44
83631;BME280;73593;52.134;5.426;2024-02-21T04:59:21;101959.03;;;7.95;87.95
83631;BME280;73593;52.134;5.426;2024-02-21T05:01:48;101962.53;;;7.96;88.45
83631;BME280;73593;52.134;5.426;2024-02-21T05:04:17;101957.16;;;7.97;88.30
83631;BME280;73593;52.134;5.426;2024-02-21T05:06:48;101958.94;;;7.97;88.48
83631;BME280;73593;52.134;5.426;2024-02-21T05:09:18;101960.66;;;7.98;88.35
83631;BME280;73593;52.134;5.426;2024-02-21T05:11:44;101958.91;;;7.98;88.29
83631;BME280;73593;52.134;5.426;2024-02-21T05:14:14;101954.53;;;7.97;88.33
83631;BME280;73593;52.134;5.426;2024-02-21T05:16:41;101958.00;;;7.98;88.74
83631;BME280;73593;52.134;5.426;2024-02-21T05:19:10;101950.09;;;7.98;88.25
83631;BME280;73593;52.134;5.426;2024-02-21T05:21:36;101936.06;;;7.97;88.30
83631;BME280;73593;52.134;5.426;2024-02-21T05:24:06;101943.97;;;7.97;88.11
83631;BME280;73593;52.134;5.426;2024-02-21T05:26:35;101931.72;;;7.96;88.46
83631;BME280;73593;52.134;5.426;2024-02-21T05:29:01;101925.63;;;7.96;88.31
83631;BME280;73593;52.134;5.426;2024-02-21T05:34:21;101928.34;;;7.94;88.42
83631;BME280;73593;52.134;5.426;2024-02-21T05:36:51;101911.66;;;7.94;88.30
83631;BME280;73593;52.134;5.426;2024-02-21T05:39:20;101902.81;;;7.95;88.46
83631;BME280;73593;52.134;5.426;2024-02-21T05:41:50;101895.00;;;7.93;88.63
83631;BME280;73593;52.134;5.426;2024-02-21T05:44:18;101903.84;;;7.92;88.46
83631;BME280;73593;52.134;5.426;2024-02-21T05:46:46;101901.22;;;7.92;88.43
83631;BME280;73593;52.134;5.426;2024-02-21T05:49:12;101889.78;;;7.92;88.56
83631;BME280;73593;52.134;5.426;2024-02-21T05:51:44;101887.16;;;7.92;88.44
83631;BME280;73593;52.134;5.426;2024-02-21T05:54:14;101883.75;;;7.90;88.44
83631;BME280;73593;52.134;5.426;2024-02-21T05:56:44;101872.25;;;7.91;88.52
83631;BME280;73593;52.134;5.426;2024-02-21T05:59:11;101875.84;;;7.90;88.61
83631;BME280;73593;52.134;5.426;2024-02-21T06:01:40;101879.31;;;7.90;88.65
83631;BME280;73593;52.134;5.426;2024-02-21T06:04:09;101872.34;;;7.89;88.56
83631;BME280;73593;52.134;5.426;2024-02-21T06:06:38;101879.31;;;7.90;88.42
83631;BME280;73593;52.134;5.426;2024-02-21T06:09:05;101877.63;;;7.89;88.68
83631;BME280;73593;52.134;5.426;2024-02-21T06:11:32;101871.41;;;7.90;88.49
83631;BME280;73593;52.134;5.426;2024-02-21T06:13:59;101869.63;;;7.91;88.61
83631;BME280;73593;52.134;5.426;2024-02-21T06:16:26;101868.78;;;7.90;88.53
83631;BME280;73593;52.134;5.426;2024-02-21T06:18:53;101860.88;;;7.90;88.83
83631;BME280;73593;52.134;5.426;2024-02-21T06:21:20;101858.31;;;7.89;88.66
83631;BME280;73593;52.134;5.426;2024-02-21T06:23:51;101857.47;;;7.88;88.46
83631;BME280;73593;52.134;5.426;2024-02-21T06:26:20;101864.53;;;7.88;88.47
83631;BME280;73593;52.134;5.426;2024-02-21T06:28:49;101872.44;;;7.88;88.76
83631;BME280;73593;52.134;5.426;2024-02-21T06:31:18;101867.16;;;7.88;88.97
83631;BME280;73593;52.134;5.426;2024-02-21T06:33:45;101872.44;;;7.88;88.66
83631;BME280;73593;52.134;5.426;2024-02-21T06:36:12;101876.91;;;7.86;88.89
83631;BME280;73593;52.134;5.426;2024-02-21T06:38:41;101878.72;;;7.85;88.67
83631;BME280;73593;52.134;5.426;2024-02-21T06:41:17;101873.63;;;7.82;88.81
83631;BME280;73593;52.134;5.426;2024-02-21T06:43:45;101869.28;;;7.81;88.81
83631;BME280;73593;52.134;5.426;2024-02-21T06:46:26;101878.97;;;7.80;88.92
83631;BME280;73593;52.134;5.426;2024-02-21T06:48:59;101872.84;;;7.80;89.02
83631;BME280;73593;52.134;5.426;2024-02-21T06:51:29;101871.13;;;7.79;89.01
83631;BME280;73593;52.134;5.426;2024-02-21T06:53:56;101865.94;;;7.77;88.98
83631;BME280;73593;52.134;5.426;2024-02-21T06:56:26;101854.53;;;7.77;88.77
83631;BME280;73593;52.134;5.426;2024-02-21T06:58:55;101862.44;;;7.77;89.09
83631;BME280;73593;52.134;5.426;2024-02-21T07:01:23;101862.53;;;7.75;88.97
83631;BME280;73593;52.134;5.426;2024-02-21T07:03:50;101858.13;;;7.76;88.82
83631;BME280;73593;52.134;5.426;2024-02-21T07:06:20;101848.59;;;7.73;88.89
83631;BME280;73593;52.134;5.426;2024-02-21T07:08:49;101852.09;;;7.74;88.84
83631;BME280;73593;52.134;5.426;2024-02-21T07:11:15;101844.19;;;7.74;89.09
83631;BME280;73593;52.134;5.426;2024-02-21T07:13:42;101847.72;;;7.73;89.11
83631;BME280;73593;52.134;5.426;2024-02-21T07:16:11;101854.78;;;7.72;88.68
83631;BME280;73593;52.134;5.426;2024-02-21T07:18:38;101846.03;;;7.72;89.02
83631;BME280;73593;52.134;5.426;2024-02-21T07:21:07;101837.19;;;7.73;88.90
83631;BME280;73593;52.134;5.426;2024-02-21T07:23:42;101836.34;;;7.72;88.85
83631;BME280;73593;52.134;5.426;2024-02-21T07:26:11;101841.59;;;7.72;88.96
83631;BME280;73593;52.134;5.426;2024-02-21T07:28:40;101839.81;;;7.73;89.03
83631;BME280;73593;52.134;5.426;2024-02-21T07:31:07;101831.91;;;7.73;89.02
83631;BME280;73593;52.134;5.426;2024-02-21T07:33:34;101834.53;;;7.73;88.99
83631;BME280;73593;52.134;5.426;2024-02-21T07:36:07;101827.44;;;7.75;88.75
83631;BME280;73593;52.134;5.426;2024-02-21T07:38:42;101823.84;;;7.76;88.65
83631;BME280;73593;52.134;5.426;2024-02-21T07:41:08;101810.69;;;7.76;88.66
83631;BME280;73593;52.134;5.426;2024-02-21T07:43:35;101804.47;;;7.77;88.84
83631;BME280;73593;52.134;5.426;2024-02-21T07:46:02;101803.53;;;7.78;88.90
83631;BME280;73593;52.134;5.426;2024-02-21T07:48:30;101791.03;;;7.81;88.40
83631;BME280;73593;52.134;5.426;2024-02-21T07:51:03;101789.25;;;7.82;88.76
83631;BME280;73593;52.134;5.426;2024-02-21T07:53:30;101781.25;;;7.84;88.43
83631;BME280;73593;52.134;5.426;2024-02-21T07:55:59;101770.63;;;7.85;88.55
83631;BME280;73593;52.134;5.426;2024-02-21T07:58:29;101768.69;;;7.89;88.36
83631;BME280;73593;52.134;5.426;2024-02-21T08:00:57;101763.31;;;7.90;88.18
83631;BME280;73593;52.134;5.426;2024-02-21T08:03:24;101774.56;;;7.94;88.25
83631;BME280;73593;52.134;5.426;2024-02-21T08:05:52;101773.63;;;7.95;88.12
83631;BME280;73593;52.134;5.426;2024-02-21T08:08:19;101777.03;;;7.97;88.21
83631;BME280;73593;52.134;5.426;2024-02-21T08:10:50;101780.50;;;7.97;88.10
83631;BME280;73593;52.134;5.426;2024-02-21T08:13:18;101768.97;;;8.00;87.73
83631;BME280;73593;52.134;5.426;2024-02-21T08:15:44;101760.81;;;8.04;87.90
83631;BME280;73593;52.134;5.426;2024-02-21T08:18:14;101753.66;;;8.06;87.74
83631;BME280;73593;52.134;5.426;2024-02-21T08:20:43;101761.31;;;8.11;87.58
83631;BME280;73593;52.134;5.426;2024-02-21T08:23:15;101753.97;;;8.16;87.33
83631;BME280;73593;52.134;5.426;2024-02-21T08:25:42;101755.59;;;8.19;87.10
83631;BME280;73593;52.134;5.426;2024-02-21T08:28:09;101750.22;;;8.20;87.47
83631;BME280;73593;52.134;5.426;2024-02-21T08:30:38;101750.91;;;8.24;87.18
83631;BME280;73593;52.134;5.426;2024-02-21T08:33:15;101745.66;;;8.24;87.04
83631;BME280;73593;52.134;5.426;2024-02-21T08:35:43;101733.31;;;8.24;87.10
83631;BME280;73593;52.134;5.426;2024-02-21T08:38:09;101740.09;;;8.28;87.33
83631;BME280;73593;52.134;5.426;2024-02-21T08:40:36;101734.75;;;8.30;86.79
83631;BME280;73593;52.134;5.426;2024-02-21T08:43:03;101738.13;;;8.32;86.92
83631;BME280;73593;52.134;5.426;2024-02-21T08:45:32;101730.06;;;8.35;86.79
83631;BME280;73593;52.134;5.426;2024-02-21T08:47:59;101722.00;;;8.38;87.03
83631;BME280;73593;52.134;5.426;2024-02-21T08:50:28;101711.34;;;8.40;86.91
83631;BME280;73593;52.134;5.426;2024-02-21T08:52:58;101699.69;;;8.44;86.56
83631;BME280;73593;52.134;5.426;2024-02-21T08:55:24;101701.13;;;8.49;86.72
83631;BME280;73593;52.134;5.426;2024-02-21T08:57:53;101703.56;;;8.52;86.73
83631;BME280;73593;52.134;5.426;2024-02-21T09:00:20;101701.75;;;8.53;86.53
83631;BME280;73593;52.134;5.426;2024-02-21T09:51:19;101625.66;;;8.89;83.68
83631;BME280;73593;52.134;5.426;2024-02-21T09:53:50;101616.88;;;8.89;83.69
83631;BME280;73593;52.134;5.426;2024-02-21T09:56:38;101606.16;;;8.92;83.55
83631;BME280;73593;52.134;5.426;2024-02-21T09:59:08;101604.16;;;8.96;83.89
83631;BME280;73593;52.134;5.426;2024-02-21T10:01:35;101595.22;;;8.98;83.63
83631;BME280;73593;52.134;5.426;2024-02-21T10:04:02;101590.69;;;9.00;83.58
83631;BME280;73593;52.134;5.426;2024-02-21T10:06:32;101581.81;;;9.01;83.31
83631;BME280;73593;52.134;5.426;2024-02-21T10:08:59;101569.28;;;9.05;83.29
83631;BME280;73593;52.134;5.426;2024-02-21T10:11:28;101570.78;;;9.09;82.97
83631;BME280;73593;52.134;5.426;2024-02-21T10:14:07;101570.56;;;9.12;82.73
83631;BME280;73593;52.134;5.426;2024-02-21T10:16:34;101552.84;;;9.14;82.62
83631;BME280;73593;52.134;5.426;2024-02-21T10:19:04;101555.84;;;9.22;83.11
83631;BME280;73593;52.134;5.426;2024-02-21T10:21:33;101549.41;;;9.26;82.31
83631;BME280;73593;52.134;5.426;2024-02-21T10:24:02;101544.69;;;9.31;82.48
83631;BME280;73593;52.134;5.426;2024-02-21T10:26:29;101541.53;;;9.39;82.16
83631;BME280;73593;52.134;5.426;2024-02-21T10:28:56;101541.34;;;9.42;82.16
83631;BME280;73593;52.134;5.426;2024-02-21T10:31:26;101526.78;;;9.49;81.78
83631;BME280;73593;52.134;5.426;2024-02-21T10:33:58;101515.28;;;9.50;81.34
83631;BME280;73593;52.134;5.426;2024-02-21T10:46:22;101500.44;;;9.75;80.96
83631;BME280;73593;52.134;5.426;2024-02-21T10:49:10;101487.31;;;9.73;80.91
83631;BME280;73593;52.134;5.426;2024-02-21T10:51:43;101476.09;;;9.69;80.92
83631;BME280;73593;52.134;5.426;2024-02-21T10:56:57;101470.19;;;9.66;81.34
83631;BME280;73593;52.134;5.426;2024-02-21T10:59:25;101448.81;;;9.69;81.23
83631;BME280;73593;52.134;5.426;2024-02-21T11:01:55;101425.56;;;9.74;80.95
83631;BME280;73593;52.134;5.426;2024-02-21T11:04:25;101415.09;;;9.73;80.73
83631;BME280;73593;52.134;5.426;2024-02-21T11:06:53;101402.00;;;9.71;80.97
83631;BME280;73593;52.134;5.426;2024-02-21T11:09:32;101404.53;;;9.73;80.91
83631;BME280;73593;52.134;5.426;2024-02-21T11:12:04;101409.06;;;9.71;81.39
83631;BME280;73593;52.134;5.426;2024-02-21T11:14:39;101447.56;;;9.75;81.21
83631;BME280;73593;52.134;5.426;2024-02-21T11:17:19;101479.69;;;9.68;81.35
83631;BME280;73593;52.134;5.426;2024-02-21T11:19:50;101477.56;;;9.61;81.49
83631;BME280;73593;52.134;5.426;2024-02-21T11:22:20;101469.31;;;9.53;81.38
83631;BME280;73593;52.134;5.426;2024-02-21T11:24:51;101461.69;;;9.48;81.92
83631;BME280;73593;52.134;5.426;2024-02-21T11:27:25;101459.94;;;9.34;81.33
83631;BME280;73593;52.134;5.426;2024-02-21T11:29:56;101453.16;;;9.30;81.95
83631;BME280;73593;52.134;5.426;2024-02-21T11:32:23;101448.09;;;9.27;82.01
83631;BME280;73593;52.134;5.426;2024-02-21T11:34:58;101446.59;;;9.23;82.26
83631;BME280;73593;52.134;5.426;2024-02-21T11:37:33;101436.13;;;9.22;82.42
83631;BME280;73593;52.134;5.426;2024-02-21T11:40:01;101425.75;;;9.19;82.61
83631;BME280;73593;52.134;5.426;2024-02-21T11:42:30;101421.59;;;9.14;82.61
83631;BME280;73593;52.134;5.426;2024-02-21T11:44:59;101404.28;;;9.10;82.29
83631;BME280;73593;52.134;5.426;2024-02-21T11:47:29;101400.03;;;9.08;82.53
83631;BME280;73593;52.134;5.426;2024-02-21T11:49:56;101397.59;;;9.05;82.85
83631;BME280;73593;52.134;5.426;2024-02-21T11:52:26;101393.28;;;9.04;82.81
83631;BME280;73593;52.134;5.426;2024-02-21T11:54:56;101386.19;;;9.04;82.80
83631;BME280;73593;52.134;5.426;2024-02-21T11:57:34;101380.91;;;9.04;82.77
83631;BME280;73593;52.134;5.426;2024-02-21T12:00:18;101354.41;;;9.06;82.94
83631;BME280;73593;52.134;5.426;2024-02-21T12:02:54;101329.91;;;9.17;82.70
83631;BME280;73593;52.134;5.426;2024-02-21T12:05:22;101326.03;;;9.35;82.66
83631;BME280;73593;52.134;5.426;2024-02-21T12:07:49;101320.53;;;9.51;82.19
83631;BME280;73593;52.134;5.426;2024-02-21T12:10:18;101302.91;;;9.64;82.25
83631;BME280;73593;52.134;5.426;2024-02-21T12:12:47;101288.06;;;9.74;81.85
83631;BME280;73593;52.134;5.426;2024-02-21T12:15:14;101286.38;;;9.86;81.63
83631;BME280;73593;52.134;5.426;2024-02-21T12:17:42;101266.47;;;9.93;81.09
83631;BME280;73593;52.134;5.426;2024-02-21T12:20:09;101261.50;;;10.01;80.67
83631;BME280;73593;52.134;5.426;2024-02-21T12:22:41;101267.78;;;10.11;80.66
83631;BME280;73593;52.134;5.426;2024-02-21T12:25:23;101264.38;;;10.22;80.18
83631;BME280;73593;52.134;5.426;2024-02-21T12:27:52;101257.72;;;10.29;79.93
83631;BME280;73593;52.134;5.426;2024-02-21T12:30:19;101244.47;;;10.29;79.71
83631;BME280;73593;52.134;5.426;2024-02-21T12:32:46;101238.03;;;10.33;79.81
83631;BME280;73593;52.134;5.426;2024-02-21T12:35:13;101230.59;;;10.38;79.74
83631;BME280;73593;52.134;5.426;2024-02-21T12:37:42;101217.19;;;10.29;78.95
83631;BME280;73593;52.134;5.426;2024-02-21T12:40:09;101203.53;;;10.22;78.90
83631;BME280;73593;52.134;5.426;2024-02-21T12:42:41;101207.88;;;10.23;79.21
83631;BME280;73593;52.134;5.426;2024-02-21T12:45:11;101199.75;;;10.26;79.07
83631;BME280;73593;52.134;5.426;2024-02-21T12:47:42;101189.56;;;10.20;78.85
83631;BME280;73593;52.134;5.426;2024-02-21T12:50:09;101172.34;;;10.14;78.86
83631;BME280;73593;52.134;5.426;2024-02-21T12:52:38;101171.91;;;10.20;79.23
83631;BME280;73593;52.134;5.426;2024-02-21T12:55:08;101164.50;;;10.26;79.05
83631;BME280;73593;52.134;5.426;2024-02-21T12:57:41;101155.28;;;10.31;79.04
83631;BME280;73593;52.134;5.426;2024-02-21T13:00:08;101144.22;;;10.37;79.32
83631;BME280;73593;52.134;5.426;2024-02-21T13:02:35;101139.66;;;10.39;78.77
83631;BME280;73593;52.134;5.426;2024-02-21T13:05:07;101133.00;;;10.34;78.38
83631;BME280;73593;52.134;5.426;2024-02-21T13:07:34;101118.22;;;10.31;78.70
83631;BME280;73593;52.134;5.426;2024-02-21T13:10:01;101103.91;;;10.34;78.72
83631;BME280;73593;52.134;5.426;2024-02-21T13:12:27;101101.97;;;10.36;78.69
83631;BME280;73593;52.134;5.426;2024-02-21T13:14:59;101094.66;;;10.39;78.59
83631;BME280;73593;52.134;5.426;2024-02-21T13:17:25;101098.38;;;10.37;78.14
83631;BME280;73593;52.134;5.426;2024-02-21T13:19:57;101100.41;;;10.33;78.17
83631;BME280;73593;52.134;5.426;2024-02-21T13:22:24;101096.81;;;10.34;78.50
83631;BME280;73593;52.134;5.426;2024-02-21T13:24:55;101079.97;;;10.35;78.27
83631;BME280;73593;52.134;5.426;2024-02-21T13:27:24;101085.25;;;10.35;78.39
83631;BME280;73593;52.134;5.426;2024-02-21T13:29:55;101075.88;;;10.31;77.64
83631;BME280;73593;52.134;5.426;2024-02-21T13:32:22;101076.44;;;10.23;77.73
83631;BME280;73593;52.134;5.426;2024-02-21T13:34:49;101059.09;;;10.19;77.98
83631;BME280;73593;52.134;5.426;2024-02-21T13:37:19;101049.81;;;10.14;77.86
83631;BME280;73593;52.134;5.426;2024-02-21T13:39:48;101048.47;;;10.08;77.73
83631;BME280;73593;52.134;5.426;2024-02-21T13:42:14;101039.91;;;10.05;77.94
83631;BME280;73593;52.134;5.426;2024-02-21T13:44:48;101028.28;;;10.07;78.22
83631;BME280;73593;52.134;5.426;2024-02-21T13:47:15;101023.00;;;10.07;78.27
83631;BME280;73593;52.134;5.426;2024-02-21T13:49:41;101022.25;;;10.05;78.51
83631;BME280;73593;52.134;5.426;2024-02-21T13:52:08;101019.50;;;10.07;78.65
83631;BME280;73593;52.134;5.426;2024-02-21T13:54:38;100997.59;;;10.05;78.58
83631;BME280;73593;52.134;5.426;2024-02-21T13:57:05;100998.56;;;10.04;78.30
83631;BME280;73593;52.134;5.426;2024-02-21T13:59:31;100987.97;;;10.04;78.31
83631;BME280;73593;52.134;5.426;2024-02-21T14:02:02;100985.34;;;10.04;78.29
83631;BME280;73593;52.134;5.426;2024-02-21T14:04:29;100972.25;;;10.02;78.30
83631;BME280;73593;52.134;5.426;2024-02-21T14:07:03;100973.19;;;10.01;78.20
83631;BME280;73593;52.134;5.426;2024-02-21T14:09:32;100965.97;;;10.03;78.06
83631;BME280;73593;52.134;5.426;2024-02-21T14:11:59;100951.19;;;10.01;78.25